createdAt,value
2022-09-11T00:00:00.852Z,3.67
2022-09-11T00:10:00.870Z,3.67
2022-09-11T00:20:00.885Z,3.67
2022-09-11T00:30:00.947Z,3.67
2022-09-11T00:40:00.935Z,3.68
2022-09-11T00:50:00.951Z,3.66
2022-09-11T01:00:01.035Z,3.66
2022-09-11T01:10:01.011Z,3.66
2022-09-11T01:20:01.028Z,3.66
2022-09-11T01:30:01.063Z,3.66
2022-09-11T01:40:01.066Z,3.65
2022-09-11T01:50:01.091Z,3.65
2022-09-11T02:00:01.113Z,3.65
2022-09-11T02:10:01.147Z,3.65
2022-09-11T02:20:01.180Z,3.64
2022-09-11T02:30:01.182Z,3.64
2022-09-11T02:40:01.202Z,3.64
2022-09-11T02:50:01.236Z,3.64
2022-09-11T03:00:01.297Z,3.64
2022-09-11T03:10:01.335Z,3.63
2022-09-11T03:20:01.304Z,3.64
2022-09-11T03:30:01.410Z,3.63
2022-09-11T03:40:01.336Z,3.64
2022-09-11T03:50:01.375Z,3.63
2022-09-11T04:00:01.379Z,3.62
2022-09-11T04:10:01.418Z,3.62
2022-09-11T04:20:01.434Z,3.63
2022-09-11T04:30:01.485Z,3.63
2022-09-11T04:40:01.478Z,3.62
2022-09-11T04:50:01.502Z,3.61
2022-09-11T05:00:01.534Z,3.61
2022-09-11T05:10:01.537Z,3.62
2022-09-11T05:20:01.570Z,3.62
2022-09-11T05:30:01.605Z,3.61
2022-09-11T05:40:01.602Z,3.61
2022-09-11T05:50:01.636Z,3.61
2022-09-11T06:00:01.670Z,3.63
2022-09-11T06:10:01.689Z,3.61
2022-09-11T06:20:01.712Z,3.61
2022-09-11T06:30:01.742Z,3.6
2022-09-11T06:40:01.755Z,3.62
2022-09-11T06:50:01.817Z,3.6
2022-09-11T07:00:01.950Z,3.61
2022-09-11T07:10:01.830Z,3.61
2022-09-11T07:20:01.873Z,3.61
2022-09-11T07:30:01.883Z,3.61
2022-09-11T07:40:01.902Z,3.61
2022-09-11T07:50:01.985Z,3.61
2022-09-11T08:00:01.962Z,3.61
2022-09-11T08:10:02.003Z,3.62
2022-09-11T08:20:02.004Z,3.61
2022-09-11T08:30:02.040Z,3.62
2022-09-11T08:40:02.068Z,3.61
2022-09-11T08:50:02.094Z,3.62
2022-09-11T09:00:02.109Z,3.61
2022-09-11T09:10:02.133Z,3.62
2022-09-11T09:20:02.187Z,3.61
2022-09-11T09:30:02.181Z,3.61
2022-09-11T09:40:02.214Z,3.61
2022-09-11T09:50:02.240Z,3.61
2022-09-11T10:00:02.264Z,3.62
2022-09-11T10:10:02.298Z,3.62
2022-09-11T10:20:02.312Z,3.61
2022-09-11T10:30:02.361Z,3.62
2022-09-11T10:40:02.381Z,3.63
2022-09-11T10:50:02.398Z,3.62
2022-09-11T11:00:02.465Z,3.63
2022-09-11T11:10:02.470Z,3.64
2022-09-11T11:20:02.475Z,3.66
2022-09-11T11:30:02.510Z,3.68
2022-09-11T11:40:02.521Z,3.66
2022-09-11T11:50:02.559Z,3.65
2022-09-11T12:00:02.625Z,3.65
2022-09-11T12:10:02.590Z,3.65
2022-09-11T12:20:02.630Z,3.65
2022-09-11T12:30:02.659Z,3.66
2022-09-11T12:40:02.691Z,3.67
2022-09-11T12:50:02.708Z,3.67
2022-09-11T13:00:02.738Z,3.66
2022-09-11T13:10:02.757Z,3.73
2022-09-11T13:20:02.782Z,3.68
2022-09-11T13:30:02.803Z,3.66
2022-09-11T13:40:02.843Z,3.65
2022-09-11T13:50:02.866Z,3.64
2022-09-11T14:00:02.875Z,3.63
2022-09-11T14:10:02.922Z,3.64
2022-09-11T14:20:02.949Z,3.64
2022-09-11T14:30:02.971Z,3.62
2022-09-11T14:40:03.000Z,3.64
2022-09-11T14:50:03.071Z,3.62
2022-09-11T15:00:03.105Z,3.62
2022-09-11T15:10:03.072Z,3.63
2022-09-11T15:20:03.111Z,3.63
2022-09-11T15:30:03.139Z,3.62
2022-09-11T15:40:03.162Z,3.62
2022-09-11T15:50:03.186Z,3.62
2022-09-11T16:00:03.208Z,3.62
2022-09-11T16:10:03.244Z,3.61
2022-09-11T16:20:03.263Z,3.61
2022-09-11T16:30:03.309Z,3.61
2022-09-11T16:40:03.314Z,3.61
2022-09-11T16:50:03.356Z,3.61
2022-09-11T17:00:03.373Z,3.61
2022-09-11T17:10:03.395Z,3.6
2022-09-11T17:20:03.440Z,3.6
2022-09-11T17:30:03.472Z,3.6
2022-09-11T17:40:03.484Z,3.6
2022-09-11T17:50:03.512Z,3.59
2022-09-11T18:00:03.557Z,3.59
2022-09-11T18:10:03.570Z,3.59
2022-09-11T18:20:03.610Z,3.6
2022-09-11T18:30:03.622Z,3.6
2022-09-11T18:40:03.660Z,3.59
2022-09-11T18:50:03.679Z,3.6
2022-09-11T19:00:03.728Z,3.59
2022-09-11T19:10:03.759Z,3.59
2022-09-11T19:20:03.772Z,3.59
2022-09-11T19:30:03.811Z,3.59
2022-09-11T19:40:03.802Z,3.59
2022-09-11T19:50:03.859Z,3.58
2022-09-11T20:00:03.884Z,3.6
2022-09-11T20:10:03.909Z,3.59
2022-09-11T20:20:03.976Z,3.57
2022-09-11T20:30:03.948Z,3.57
2022-09-11T20:40:03.994Z,3.58
2022-09-11T20:50:03.999Z,3.59
2022-09-11T21:00:04.042Z,3.58
2022-09-11T21:10:04.057Z,3.59
2022-09-11T21:20:04.082Z,3.58
2022-09-11T21:30:04.125Z,3.57
2022-09-11T21:40:04.146Z,3.57
2022-09-11T21:50:04.185Z,3.58
2022-09-11T22:00:04.210Z,3.57
2022-09-11T22:10:04.254Z,3.57
2022-09-11T22:20:04.270Z,3.57
2022-09-11T22:30:04.280Z,3.56
2022-09-11T22:40:04.342Z,3.56
2022-09-11T22:50:04.349Z,3.56
2022-09-11T23:00:04.362Z,3.56
2022-09-11T23:10:04.398Z,3.56
2022-09-11T23:20:04.426Z,3.55
2022-09-11T23:30:04.453Z,3.56
2022-09-11T23:40:04.496Z,3.56
2022-09-11T23:50:04.524Z,3.56
